createdAt,value
2023-01-11T00:01:07.488Z,1.99
2023-01-11T00:03:34.328Z,2.02
2023-01-11T00:06:01.158Z,1.94
2023-01-11T00:08:28.550Z,1.95
2023-01-11T00:10:55.462Z,2.04
2023-01-11T00:13:22.040Z,2.14
2023-01-11T00:15:48.618Z,2.02
2023-01-11T00:18:15.258Z,2.01
2023-01-11T00:20:42.229Z,2.05
2023-01-11T00:23:09.230Z,2.09
2023-01-11T00:25:36.303Z,1.98
2023-01-11T00:28:03.273Z,2.03
2023-01-11T00:30:29.816Z,1.99
2023-01-11T00:33:00.606Z,1.99
2023-01-11T00:35:29.950Z,1.97
2023-01-11T00:37:56.583Z,2.01
2023-01-11T00:40:24.251Z,1.99
2023-01-11T00:43:09.452Z,2.05
2023-01-11T00:46:08.510Z,2.07
2023-01-11T00:48:35.106Z,2.13
2023-01-11T00:51:01.688Z,2.13
2023-01-11T00:53:28.213Z,2.18
2023-01-11T00:55:54.707Z,2.25
2023-01-11T00:58:21.221Z,2.26
2023-01-11T01:00:47.765Z,2.26
2023-01-11T01:03:14.311Z,2.29
2023-01-11T01:05:40.903Z,2.22
2023-01-11T01:08:07.487Z,2.07
2023-01-11T01:10:34.261Z,2.15
2023-01-11T01:13:19.276Z,2.16
2023-01-11T01:15:45.864Z,2.22
2023-01-11T01:18:12.531Z,2.21
2023-01-11T01:20:39.167Z,2.20
2023-01-11T01:23:05.744Z,2.18
2023-01-11T01:25:32.269Z,2.28
2023-01-11T01:27:58.838Z,2.30
2023-01-11T01:30:25.353Z,2.30
2023-01-11T01:32:51.904Z,2.32
2023-01-11T01:35:18.469Z,2.31
2023-01-11T01:37:45.060Z,2.31
2023-01-11T01:40:12.231Z,2.11
2023-01-11T01:42:38.784Z,2.14
2023-01-11T01:45:18.542Z,1.96
2023-01-11T01:47:53.650Z,2.11
2023-01-11T01:50:32.122Z,2.15
2023-01-11T01:53:09.859Z,2.21
2023-01-11T01:55:41.168Z,2.00
2023-01-11T01:58:12.900Z,2.03
2023-01-11T02:00:42.528Z,2.17
2023-01-11T02:03:12.230Z,2.15
2023-01-11T02:05:38.750Z,1.95
2023-01-11T02:08:11.589Z,2.06
2023-01-11T02:10:38.279Z,2.12
2023-01-11T02:13:08.930Z,2.18
2023-01-11T02:15:36.881Z,2.19
2023-01-11T02:18:03.813Z,2.23
2023-01-11T02:20:45.527Z,2.35
2023-01-11T02:23:17.872Z,2.26
2023-01-11T02:25:53.547Z,2.25
2023-01-11T02:28:54.026Z,2.23
2023-01-11T02:32:00.371Z,2.55
2023-01-11T02:34:30.608Z,2.45
2023-01-11T02:37:00.060Z,2.38
2023-01-11T02:39:43.694Z,2.44
2023-01-11T02:42:47.832Z,2.56
2023-01-11T02:45:24.769Z,2.59
2023-01-11T02:48:12.259Z,2.46
2023-01-11T02:50:48.988Z,2.60
2023-01-11T02:53:50.177Z,2.61
2023-01-11T02:56:30.832Z,2.66
2023-01-11T02:58:58.564Z,2.71
2023-01-11T03:01:25.672Z,2.70
2023-01-11T03:03:53.619Z,2.55
2023-01-11T03:06:34.928Z,2.75
2023-01-11T03:09:18.154Z,2.77
2023-01-11T03:12:20.459Z,2.93
2023-01-11T03:15:27.443Z,2.96
2023-01-11T03:18:02.894Z,2.98
2023-01-11T03:20:40.935Z,3.08
2023-01-11T03:23:17.630Z,3.14
2023-01-11T03:26:16.322Z,3.03
2023-01-11T03:28:48.577Z,3.13
2023-01-11T03:31:26.522Z,3.00
2023-01-11T03:34:08.899Z,3.08
2023-01-11T03:37:07.372Z,2.94
2023-01-11T03:39:44.918Z,3.14
2023-01-11T03:42:15.688Z,2.81
2023-01-11T03:44:50.414Z,3.07
2023-01-11T03:47:20.565Z,3.21
2023-01-11T03:49:53.324Z,3.06
2023-01-11T03:52:25.735Z,3.04
2023-01-11T03:54:55.545Z,3.28
2023-01-11T03:57:33.596Z,2.99
2023-01-11T04:00:00.766Z,2.90
2023-01-11T04:02:34.001Z,3.08
2023-01-11T04:05:00.759Z,3.00
2023-01-11T04:07:27.307Z,3.22
2023-01-11T04:09:53.877Z,3.13
2023-01-11T04:12:20.406Z,3.34
2023-01-11T04:14:46.898Z,3.26
2023-01-11T04:17:13.414Z,3.30
2023-01-11T04:19:39.922Z,3.39
2023-01-11T04:22:06.437Z,3.51
2023-01-11T04:24:33.042Z,3.54
2023-01-11T04:26:59.597Z,3.54
2023-01-11T04:29:26.154Z,3.62
2023-01-11T04:31:52.806Z,3.51
2023-01-11T04:34:19.427Z,3.56
2023-01-11T04:36:45.943Z,3.50
2023-01-11T04:39:12.529Z,3.56
2023-01-11T04:41:57.906Z,3.49
2023-01-11T04:44:24.710Z,3.85
2023-01-11T04:46:51.248Z,3.71
2023-01-11T04:49:17.845Z,3.89
2023-01-11T04:51:44.420Z,3.79
2023-01-11T04:54:11.185Z,3.96
2023-01-11T04:56:37.738Z,3.85
2023-01-11T04:59:04.291Z,4.02
2023-01-11T05:01:31.067Z,3.97
2023-01-11T05:03:57.653Z,3.87
2023-01-11T05:06:24.338Z,3.94
2023-01-11T05:08:50.938Z,4.04
2023-01-11T05:11:18.019Z,4.04
2023-01-11T05:13:45.197Z,4.07
2023-01-11T05:16:13.508Z,4.08
2023-01-11T05:18:45.436Z,4.05
2023-01-11T05:21:14.527Z,4.05
2023-01-11T05:23:41.945Z,4.08
2023-01-11T05:26:11.158Z,4.07
2023-01-11T05:28:37.837Z,3.96
2023-01-11T05:31:04.729Z,4.10
2023-01-11T05:33:31.678Z,3.84
2023-01-11T05:36:00.202Z,3.94
2023-01-11T05:38:27.106Z,4.13
2023-01-11T05:40:58.558Z,4.15
2023-01-11T05:43:26.545Z,4.13
2023-01-11T05:45:53.671Z,4.03
2023-01-11T05:48:20.852Z,4.08
2023-01-11T05:50:55.427Z,4.15
2023-01-11T05:53:24.043Z,4.16
2023-01-11T05:55:58.647Z,4.10
2023-01-11T05:58:26.852Z,4.06
2023-01-11T06:00:56.011Z,4.03
2023-01-11T06:03:24.285Z,4.03
2023-01-11T06:05:51.599Z,3.99
2023-01-11T06:08:18.392Z,4.04
2023-01-11T06:10:51.798Z,4.12
2023-01-11T06:13:27.079Z,4.18
2023-01-11T06:15:54.125Z,4.24
2023-01-11T06:18:21.332Z,4.30
2023-01-11T06:20:51.879Z,4.36
2023-01-11T06:23:18.713Z,4.39
2023-01-11T06:25:45.870Z,4.43
2023-01-11T06:28:12.937Z,4.29
2023-01-11T06:30:40.249Z,4.46
2023-01-11T06:33:07.466Z,4.39
2023-01-11T06:35:38.659Z,4.41
2023-01-11T06:38:06.471Z,4.36
2023-01-11T06:40:33.491Z,4.58
2023-01-11T06:43:00.065Z,4.61
2023-01-11T06:45:26.725Z,4.37
2023-01-11T06:47:53.290Z,4.53
2023-01-11T06:50:19.895Z,4.68
2023-01-11T06:52:59.786Z,4.43
2023-01-11T06:55:28.350Z,4.65
2023-01-11T06:57:54.928Z,4.68
2023-01-11T07:00:22.226Z,4.62
2023-01-11T07:02:49.486Z,4.79
2023-01-11T07:05:19.034Z,4.80
2023-01-11T07:07:46.028Z,4.78
2023-01-11T07:10:16.793Z,4.86
2023-01-11T07:12:43.363Z,4.89
2023-01-11T07:15:10.956Z,4.95
2023-01-11T07:17:38.230Z,4.95
2023-01-11T07:20:06.526Z,4.85
2023-01-11T07:22:36.775Z,5.01
2023-01-11T07:25:05.324Z,4.81
2023-01-11T07:27:32.377Z,4.86
2023-01-11T07:30:01.928Z,4.91
2023-01-11T07:32:29.144Z,4.78
2023-01-11T07:34:56.219Z,4.87
2023-01-11T07:37:29.479Z,4.95
2023-01-11T07:39:56.359Z,4.66
2023-01-11T07:42:41.492Z,4.74
2023-01-11T07:45:08.594Z,4.77
2023-01-11T07:47:35.136Z,4.79
2023-01-11T07:50:01.814Z,4.88
2023-01-11T07:52:28.428Z,4.95
2023-01-11T07:54:55.119Z,4.94
2023-01-11T07:57:21.668Z,5.00
2023-01-11T07:59:48.151Z,5.20
2023-01-11T08:02:14.791Z,5.08
2023-01-11T08:04:41.350Z,5.24
2023-01-11T08:07:07.896Z,5.35
2023-01-11T08:09:34.466Z,5.52
2023-01-11T08:12:19.344Z,5.47
2023-01-11T08:14:45.903Z,5.31
2023-01-11T08:17:15.481Z,5.23
2023-01-11T08:19:42.211Z,5.27
2023-01-11T08:22:09.805Z,5.11
2023-01-11T08:24:36.571Z,5.28
2023-01-11T08:27:03.977Z,5.28
2023-01-11T08:29:31.016Z,5.31
2023-01-11T08:31:59.334Z,5.51
2023-01-11T08:34:27.602Z,5.75
2023-01-11T08:36:56.667Z,5.83
2023-01-11T08:39:24.401Z,5.75
2023-01-11T08:41:50.947Z,5.73
2023-01-11T08:44:29.149Z,5.57
2023-01-11T08:46:59.565Z,5.57
2023-01-11T08:49:26.163Z,5.48
2023-01-11T08:51:52.731Z,5.54
2023-01-11T08:54:19.275Z,5.84
2023-01-11T08:56:45.763Z,5.69
2023-01-11T08:59:12.554Z,5.95
2023-01-11T09:01:39.344Z,5.97
2023-01-11T09:04:19.100Z,5.90
2023-01-11T09:06:49.862Z,6.08
2023-01-11T09:09:26.611Z,6.12
2023-01-11T09:12:00.806Z,6.18
2023-01-11T09:14:28.755Z,6.23
2023-01-11T09:16:56.317Z,6.18
2023-01-11T09:19:23.264Z,6.22
2023-01-11T09:21:51.149Z,6.37
2023-01-11T09:24:17.770Z,6.53
2023-01-11T09:26:44.339Z,6.67
2023-01-11T09:29:11.714Z,6.84
2023-01-11T09:31:38.439Z,6.92
2023-01-11T09:34:06.945Z,6.67
2023-01-11T09:36:36.095Z,6.78
2023-01-11T09:39:07.498Z,7.02
2023-01-11T09:42:02.036Z,7.14
2023-01-11T09:44:30.106Z,7.27
2023-01-11T09:47:17.227Z,6.90
2023-01-11T09:49:51.998Z,6.98
2023-01-11T09:52:29.002Z,6.94
2023-01-11T09:54:59.096Z,7.17
2023-01-11T09:57:50.318Z,7.07
2023-01-11T10:00:33.439Z,6.98
2023-01-11T10:03:46.250Z,6.99
2023-01-11T10:06:23.011Z,7.20
2023-01-11T10:18:37.590Z,6.91
2023-01-11T10:18:40.396Z,7.11
2023-01-11T10:21:06.753Z,6.96
2023-01-11T10:24:01.219Z,7.30
2023-01-11T10:26:37.119Z,7.30
2023-01-11T10:29:16.438Z,7.26
2023-01-11T10:32:13.728Z,7.74
2023-01-11T10:35:13.672Z,7.77
2023-01-11T10:37:50.455Z,7.81
2023-01-11T10:40:35.039Z,7.83
2023-01-11T10:43:21.797Z,7.81
2023-01-11T10:45:52.102Z,7.91
2023-01-11T10:48:32.806Z,7.97
2023-01-11T10:51:16.067Z,8.17
2023-01-11T10:57:04.680Z,8.32
2023-01-11T10:59:43.967Z,8.42
2023-01-11T11:02:16.555Z,8.52
2023-01-11T11:04:52.043Z,8.28
2023-01-11T11:07:45.806Z,8.37
2023-01-11T11:10:24.449Z,8.74
2023-01-11T11:12:56.408Z,8.29
2023-01-11T11:15:38.568Z,8.45
2023-01-11T11:18:05.408Z,8.57
2023-01-11T11:20:34.109Z,8.77
2023-01-11T11:23:01.683Z,8.69
2023-01-11T11:25:35.510Z,8.35
2023-01-11T11:28:26.308Z,8.15
2023-01-11T11:30:55.674Z,8.49
2023-01-11T11:33:29.539Z,8.49
2023-01-11T11:36:09.666Z,8.54
2023-01-11T11:38:39.621Z,8.62
2023-01-11T11:41:17.004Z,8.53
2023-01-11T11:43:46.486Z,8.52
2023-01-11T11:46:19.571Z,8.48
2023-01-11T11:49:11.172Z,8.38
2023-01-11T11:51:39.158Z,8.26
2023-01-11T11:54:05.927Z,8.37
2023-01-11T11:56:41.729Z,8.47
2023-01-11T11:59:12.299Z,8.39
2023-01-11T12:01:46.890Z,8.30
2023-01-11T12:04:20.365Z,8.33
2023-01-11T12:06:53.854Z,8.73
2023-01-11T12:09:28.486Z,8.74
2023-01-11T12:11:55.390Z,8.60
2023-01-11T12:17:22.026Z,8.84
2023-01-11T12:19:48.622Z,9.03
2023-01-11T12:22:23.767Z,9.13
2023-01-11T12:25:14.651Z,9.28
2023-01-11T12:28:15.767Z,9.29
2023-01-11T12:31:12.487Z,9.28
2023-01-11T12:34:14.829Z,9.10
2023-01-11T12:36:58.789Z,9.28
2023-01-11T12:39:38.654Z,9.33
2023-01-11T12:42:33.501Z,9.03
2023-01-11T12:45:16.083Z,9.14
2023-01-11T12:48:12.903Z,8.91
2023-01-11T12:50:54.928Z,8.57
2023-01-11T12:53:40.279Z,8.44
2023-01-11T12:56:31.485Z,8.38
2023-01-11T12:59:18.211Z,8.58
2023-01-11T13:02:15.997Z,8.55
2023-01-11T13:04:51.173Z,8.46
2023-01-11T13:07:39.131Z,8.35
2023-01-11T13:10:05.597Z,8.36
2023-01-11T13:12:42.368Z,8.27
2023-01-11T13:15:34.586Z,8.70
2023-01-11T13:18:19.976Z,8.75
2023-01-11T13:21:02.126Z,8.43
2023-01-11T13:23:44.271Z,8.35
2023-01-11T13:26:28.822Z,8.20
2023-01-11T13:29:06.729Z,8.45
2023-01-11T13:31:35.757Z,8.17
2023-01-11T13:34:12.595Z,8.36
2023-01-11T13:36:45.513Z,8.41
2023-01-11T13:39:21.913Z,8.30
2023-01-11T13:41:51.949Z,8.56
2023-01-11T13:44:24.611Z,8.53
2023-01-11T13:47:13.456Z,8.69
2023-01-11T13:49:58.081Z,8.50
2023-01-11T13:53:09.788Z,8.61
2023-01-11T13:55:57.443Z,8.71
2023-01-11T13:58:30.368Z,8.73
2023-01-11T14:01:19.954Z,8.73
2023-01-11T14:03:59.652Z,8.75
2023-01-11T14:06:45.130Z,8.83
2023-01-11T14:09:51.587Z,8.72
2023-01-11T14:12:20.761Z,8.66
2023-01-11T14:14:59.397Z,8.62
2023-01-11T14:17:53.230Z,8.81
2023-01-11T14:20:38.367Z,8.81
2023-01-11T14:23:13.337Z,8.69
2023-01-11T14:26:17.505Z,8.66
2023-01-11T14:29:15.742Z,8.76
2023-01-11T14:31:57.443Z,8.68
2023-01-11T14:34:36.299Z,8.69
2023-01-11T14:37:14.971Z,8.62
2023-01-11T14:40:15.683Z,8.52
2023-01-11T14:43:10.129Z,8.57
2023-01-11T14:45:55.571Z,8.65
2023-01-11T14:48:31.145Z,8.55
2023-01-11T14:51:05.672Z,8.72
2023-01-11T14:53:41.164Z,8.75
2023-01-11T14:56:35.732Z,8.71
2023-01-11T14:59:05.296Z,8.62
2023-01-11T15:02:03.719Z,8.70
2023-01-11T15:04:52.659Z,8.64
2023-01-11T15:07:37.361Z,8.67
2023-01-11T15:10:29.967Z,8.65
2023-01-11T15:12:58.126Z,8.53
2023-01-11T15:15:47.365Z,8.58
2023-01-11T15:18:23.914Z,8.59
2023-01-11T15:21:05.354Z,8.59
2023-01-11T15:23:48.492Z,8.59
2023-01-11T15:26:18.848Z,8.62
2023-01-11T15:28:48.300Z,8.64
2023-01-11T15:31:56.537Z,8.60
2023-01-11T15:34:39.336Z,8.64
2023-01-11T15:37:33.880Z,8.62
2023-01-11T15:40:16.902Z,8.64
2023-01-11T15:43:02.237Z,8.64
2023-01-11T15:46:21.521Z,8.62
2023-01-11T15:49:09.879Z,8.58
2023-01-11T15:51:48.534Z,8.59
2023-01-11T15:54:17.947Z,8.57
2023-01-11T15:57:09.161Z,8.50
2023-01-11T16:00:21.196Z,8.51
2023-01-11T16:03:19.835Z,8.53
2023-01-11T16:06:09.434Z,8.45
2023-01-11T16:08:36.747Z,8.48
2023-01-11T16:11:21.498Z,8.47
2023-01-11T16:14:18.965Z,8.49
2023-01-11T16:16:51.740Z,8.54
2023-01-11T16:19:24.388Z,8.55
2023-01-11T16:21:58.951Z,8.55
2023-01-11T16:24:29.519Z,8.54
2023-01-11T16:27:02.329Z,8.54
2023-01-11T16:29:31.807Z,8.55
2023-01-11T16:32:06.930Z,8.53
2023-01-11T16:34:43.269Z,8.47
2023-01-11T16:37:20.535Z,8.47
2023-01-11T16:39:51.671Z,8.50
2023-01-11T16:42:18.294Z,8.54
2023-01-11T16:44:51.591Z,8.53
2023-01-11T16:47:19.856Z,8.54
2023-01-11T16:49:49.422Z,8.54
2023-01-11T16:52:28.400Z,8.53
2023-01-11T16:54:57.003Z,8.51
2023-01-11T16:57:32.610Z,8.53
2023-01-11T17:00:06.040Z,8.58
2023-01-11T17:02:43.212Z,8.53
2023-01-11T17:05:24.448Z,8.54
2023-01-11T17:07:51.022Z,8.54
2023-01-11T17:10:30.309Z,8.52
2023-01-11T17:13:52.465Z,8.46
2023-01-11T17:16:26.875Z,8.48
2023-01-11T17:18:54.573Z,8.46
2023-01-11T17:21:26.736Z,8.49
2023-01-11T17:23:58.801Z,8.47
2023-01-11T17:26:32.151Z,8.46
2023-01-11T17:29:00.370Z,8.46
2023-01-11T17:31:31.929Z,8.43
2023-01-11T17:34:20.493Z,8.49
2023-01-11T17:36:47.899Z,8.48
2023-01-11T17:39:26.209Z,8.47
2023-01-11T17:42:11.642Z,8.47
2023-01-11T17:44:56.994Z,8.52
2023-01-11T17:47:23.903Z,8.54
2023-01-11T17:49:50.913Z,8.50
2023-01-11T17:52:22.061Z,8.52
2023-01-11T17:55:04.135Z,8.52
2023-01-11T17:57:30.825Z,8.54
2023-01-11T18:00:28.200Z,8.50
2023-01-11T18:02:55.197Z,8.51
2023-01-11T18:05:26.751Z,8.52
2023-01-11T18:07:57.283Z,8.50
2023-01-11T18:10:29.788Z,8.48
2023-01-11T18:12:57.900Z,8.50
2023-01-11T18:15:33.492Z,8.53
2023-01-11T18:18:01.295Z,8.44
2023-01-11T18:20:46.248Z,8.49
2023-01-11T18:23:17.377Z,8.50
2023-01-11T18:25:46.049Z,8.51
2023-01-11T18:28:12.848Z,8.50
2023-01-11T18:30:40.943Z,8.47
2023-01-11T18:33:16.211Z,8.43
2023-01-11T18:35:44.503Z,8.40
2023-01-11T18:38:16.857Z,8.44
2023-01-11T18:40:45.256Z,8.42
2023-01-11T18:43:12.736Z,8.45
2023-01-11T18:45:39.571Z,8.40
2023-01-11T18:48:11.698Z,8.43
2023-01-11T18:50:40.433Z,8.40
2023-01-11T18:53:10.182Z,8.41
2023-01-11T18:55:36.731Z,8.39
2023-01-11T18:58:03.286Z,8.33
2023-01-11T19:00:29.913Z,8.32
2023-01-11T19:02:56.548Z,8.38
2023-01-11T19:05:23.392Z,8.41
2023-01-11T19:07:50.218Z,8.43
2023-01-11T19:10:19.824Z,8.36
2023-01-11T19:12:47.115Z,8.42
2023-01-11T19:15:14.798Z,8.43
2023-01-11T19:17:42.183Z,8.50
2023-01-11T19:20:10.970Z,8.54
2023-01-11T19:22:37.885Z,8.53
2023-01-11T19:25:05.340Z,8.56
2023-01-11T19:27:31.876Z,8.54
2023-01-11T19:29:58.504Z,8.63
2023-01-11T19:32:25.726Z,8.61
2023-01-11T19:34:53.568Z,8.59
2023-01-11T19:37:20.744Z,8.53
2023-01-11T19:39:47.376Z,8.56
2023-01-11T19:42:14.170Z,8.57
2023-01-11T19:44:40.728Z,8.55
2023-01-11T19:47:12.331Z,8.51
2023-01-11T19:49:40.625Z,8.44
2023-01-11T19:52:12.389Z,8.42
2023-01-11T19:54:41.930Z,8.43
2023-01-11T19:57:20.553Z,8.39
2023-01-11T19:59:48.734Z,8.38
2023-01-11T20:02:18.072Z,8.35
2023-01-11T20:04:44.822Z,8.41
2023-01-11T20:07:12.940Z,8.33
2023-01-11T20:09:39.581Z,8.33
2023-01-11T20:12:07.577Z,8.32
2023-01-11T20:14:35.000Z,8.30
2023-01-11T20:17:02.207Z,8.35
2023-01-11T20:19:28.826Z,8.31
2023-01-11T20:21:56.018Z,8.30
2023-01-11T20:24:29.415Z,8.30
2023-01-11T20:27:01.515Z,8.24
2023-01-11T20:29:28.142Z,8.23
2023-01-11T20:31:54.693Z,8.22
2023-01-11T20:34:21.444Z,8.14
2023-01-11T20:36:48.986Z,8.14
2023-01-11T20:39:16.826Z,8.11
2023-01-11T20:41:52.743Z,8.10
2023-01-11T20:44:32.842Z,8.06
2023-01-11T20:47:02.234Z,8.05
2023-01-11T20:49:29.826Z,8.06
2023-01-11T20:51:57.146Z,8.07
2023-01-11T20:54:23.774Z,8.04
2023-01-11T20:56:50.752Z,7.98
2023-01-11T20:59:20.727Z,7.97
2023-01-11T21:01:48.731Z,8.00
2023-01-11T21:04:16.549Z,7.86
2023-01-11T21:06:48.298Z,7.85
2023-01-11T21:09:17.303Z,7.76
2023-01-11T21:11:44.392Z,7.86
2023-01-11T21:14:13.691Z,7.93
2023-01-11T21:16:42.015Z,7.95
2023-01-11T21:19:12.336Z,7.89
2023-01-11T21:21:39.290Z,7.86
2023-01-11T21:24:06.344Z,7.88
2023-01-11T21:26:34.635Z,7.88
2023-01-11T21:29:05.015Z,7.88
2023-01-11T21:31:34.536Z,7.87
2023-01-11T21:34:01.596Z,7.89
2023-01-11T21:36:30.525Z,7.96
2023-01-11T21:38:58.657Z,7.89
2023-01-11T21:41:46.872Z,7.91
2023-01-11T21:44:14.480Z,7.81
2023-01-11T21:46:45.098Z,7.81
2023-01-11T21:49:13.084Z,7.78
2023-01-11T21:51:40.862Z,7.78
2023-01-11T21:54:12.122Z,7.72
2023-01-11T21:56:38.800Z,7.69
2023-01-11T21:59:08.197Z,7.67
2023-01-11T22:01:34.775Z,7.61
2023-01-11T22:04:10.155Z,7.59
2023-01-11T22:06:43.179Z,7.47
2023-01-11T22:09:11.423Z,7.50
2023-01-11T22:11:38.606Z,7.47
2023-01-11T22:14:06.628Z,7.47
2023-01-11T22:16:33.840Z,7.40
2023-01-11T22:19:01.300Z,7.29
2023-01-11T22:21:28.431Z,7.35
2023-01-11T22:23:59.054Z,7.32
2023-01-11T22:26:27.147Z,7.31
2023-01-11T22:29:16.285Z,7.27
2023-01-11T22:31:52.624Z,7.18
2023-01-11T22:34:19.613Z,7.13
2023-01-11T22:36:46.722Z,7.14
2023-01-11T22:39:14.989Z,7.14
2023-01-11T22:41:42.159Z,7.05
2023-01-11T22:44:12.480Z,7.09
2023-01-11T22:46:39.001Z,6.86
2023-01-11T22:49:06.487Z,6.88
2023-01-11T22:51:33.513Z,6.87
2023-01-11T22:54:00.132Z,6.72
2023-01-11T22:56:29.162Z,6.77
2023-01-11T22:58:59.671Z,6.66
2023-01-11T23:01:27.256Z,6.49
2023-01-11T23:03:54.859Z,6.47
2023-01-11T23:06:27.116Z,6.31
2023-01-11T23:08:54.462Z,6.12
2023-01-11T23:11:42.608Z,6.14
2023-01-11T23:14:10.343Z,6.14
2023-01-11T23:16:38.708Z,6.13
2023-01-11T23:19:07.339Z,6.04
2023-01-11T23:21:34.251Z,5.95
2023-01-11T23:24:01.949Z,5.89
2023-01-11T23:26:29.505Z,5.96
2023-01-11T23:28:56.040Z,6.18
2023-01-11T23:31:24.277Z,6.09
2023-01-11T23:33:54.159Z,6.01
2023-01-11T23:36:22.002Z,6.17
2023-01-11T23:38:49.521Z,6.21
2023-01-11T23:41:37.395Z,6.18
2023-01-11T23:44:13.053Z,6.22
2023-01-11T23:46:59.733Z,6.21
2023-01-11T23:49:27.354Z,6.04
2023-01-11T23:51:55.069Z,5.92
2023-01-11T23:54:22.333Z,5.77
2023-01-11T23:56:49.231Z,5.93
2023-01-11T23:59:15.802Z,5.73
